logo tempoitalia

Diretta Meteo Norfolk Stefan Memorial, Stati Uniti (USA)lunedì 31 agosto ore 00:56

Mappa
Sereno 24 °C Sereno 24 Ore: T.min 22 T.max 33
Ponente Ovest Km/h 7.4 Punto di rugiada: 22 °C Umidità: 88% Visibilità: 10 Km
Il sole sorge alle: 06:54 Il sole tramonta alle: 20:05
31 Agosto 2026 00:56 tempo osservato: Sereno Sereno 24 88 1009 vento: Nord O 7.4
30 Agosto 2026 23:56 tempo osservato: Sereno Sereno 25 83 1009 vento: Nord SO 9.3
30 Agosto 2026 22:56 tempo osservato: Sereno Sereno 26 78 1009 vento: Nord S/SO 16.7
30 Agosto 2026 21:56 tempo osservato: Sereno Sereno 26 83 1009 vento: Nord S/SO 20.3
30 Agosto 2026 20:56 tempo osservato: Sereno Sereno 27 78 1009 vento: Nord S 14.8
30 Agosto 2026 19:56 tempo osservato: Sereno Sereno 28 74 1009 vento: Nord S 9.3
30 Agosto 2026 18:56 tempo osservato: Sereno Sereno 31 58 1009 vento: Nord S/SO 11.1
30 Agosto 2026 17:56 tempo osservato: Sereno Sereno 32 52 1008 vento: Nord SO 18.5
30 Agosto 2026 16:56 tempo osservato: Sereno Sereno 33 43 1008 vento: Nord S/SO 16.7
30 Agosto 2026 15:56 tempo osservato: Sereno Sereno 33 52 1008 vento: Nord S 20.3
30 Agosto 2026 14:56 tempo osservato: Sereno Sereno 31 55 1008 vento: Nord SO 14.8
30 Agosto 2026 13:56 tempo osservato: Sereno Sereno 32 49 1008 vento: Nord SO 11.1
30 Agosto 2026 12:56 tempo osservato: Sereno Sereno 32 49 1009 vento: Nord SO 18.5
30 Agosto 2026 11:56 tempo osservato: Sereno Sereno 31 48 1009 vento: Nord O/SO 18.5
30 Agosto 2026 10:56 tempo osservato: Sereno Sereno 31 45 1009 vento: Nord SO 20.3
30 Agosto 2026 09:56 tempo osservato: Sereno Sereno 29 54 1009 vento: Nord SO 13
30 Agosto 2026 08:56 tempo osservato: Sereno Sereno 27 57 1009 vento: Nord S/SO 11.1
30 Agosto 2026 07:56 tempo osservato: Sereno Sereno 22 78 1009 vento: Nord SO 11.1
30 Agosto 2026 06:56 tempo osservato: Sereno Sereno 22 83 1008 vento: Nord O 11.1
30 Agosto 2026 05:56 tempo osservato: Sereno Sereno 24 69 1006 vento: Nord E/NE 14.8
30 Agosto 2026 04:56 tempo osservato: Molto Nuvoloso Molto Nuvoloso 25 65 1009 vento: Nord SO 22.2
30 Agosto 2026 03:56 tempo osservato: Sereno Sereno 27 61 1008 vento: Nord SO 27.8
30 Agosto 2026 02:56 tempo osservato: Sereno Sereno 23 88 1008 vento: Nord S 11.1
30 Agosto 2026 01:56 tempo osservato: Sereno Sereno 22 100 1008 vento: Nord S 7.4